sensor_id;sensor_type;location;lat;lon;timestamp;temperature;humidity
21823;DHT22;11074;48.596;9.238;2023-02-22T00:01:30;6.50;99.90
21823;DHT22;11074;48.596;9.238;2023-02-22T00:04:01;6.40;99.90
21823;DHT22;11074;48.596;9.238;2023-02-22T00:06:30;6.40;99.90
21823;DHT22;11074;48.596;9.238;2023-02-22T00:08:57;6.40;99.90
21823;DHT22;11074;48.596;9.238;2023-02-22T00:11:23;6.30;99.90
21823;DHT22;11074;48.596;9.238;2023-02-22T00:13:49;6.30;99.90
21823;DHT22;11074;48.596;9.238;2023-02-22T00:16:19;6.20;99.90
21823;DHT22;11074;48.596;9.238;2023-02-22T00:18:46;6.20;99.90
21823;DHT22;11074;48.596;9.238;2023-02-22T00:21:14;6.10;99.90
21823;DHT22;11074;48.596;9.238;2023-02-22T00:23:43;6.10;99.90
21823;DHT22;11074;48.596;9.238;2023-02-22T00:26:12;6.00;99.90
21823;DHT22;11074;48.596;9.238;2023-02-22T00:28:44;6.00;99.90
21823;DHT22;11074;48.596;9.238;2023-02-22T00:31:11;5.90;99.90
21823;DHT22;11074;48.596;9.238;2023-02-22T00:33:38;6.00;99.90
21823;DHT22;11074;48.596;9.238;2023-02-22T00:36:04;6.00;99.90
21823;DHT22;11074;48.596;9.238;2023-02-22T00:38:29;5.90;99.90
21823;DHT22;11074;48.596;9.238;2023-02-22T00:40:55;5.90;99.90
21823;DHT22;11074;48.596;9.238;2023-02-22T00:43:21;5.80;99.90
21823;DHT22;11074;48.596;9.238;2023-02-22T00:45:46;5.70;99.90
21823;DHT22;11074;48.596;9.238;2023-02-22T00:48:13;5.70;99.90
21823;DHT22;11074;48.596;9.238;2023-02-22T00:50:39;5.70;99.90
21823;DHT22;11074;48.596;9.238;2023-02-22T00:53:05;5.80;99.90
21823;DHT22;11074;48.596;9.238;2023-02-22T00:55:34;5.80;99.90
21823;DHT22;11074;48.596;9.238;2023-02-22T00:58:01;5.80;99.90
21823;DHT22;11074;48.596;9.238;2023-02-22T01:00:36;5.90;99.90
21823;DHT22;11074;48.596;9.238;2023-02-22T01:03:05;5.90;99.90
21823;DHT22;11074;48.596;9.238;2023-02-22T01:05:32;5.90;99.90
21823;DHT22;11074;48.596;9.238;2023-02-22T01:08:00;5.90;99.90
21823;DHT22;11074;48.596;9.238;2023-02-22T01:10:29;5.80;99.90
21823;DHT22;11074;48.596;9.238;2023-02-22T01:12:56;5.70;99.90
21823;DHT22;11074;48.596;9.238;2023-02-22T01:15:25;5.70;99.90
21823;DHT22;11074;48.596;9.238;2023-02-22T01:17:55;5.80;99.90
21823;DHT22;11074;48.596;9.238;2023-02-22T01:20:23;5.80;99.90
21823;DHT22;11074;48.596;9.238;2023-02-22T01:22:51;5.80;99.90
21823;DHT22;11074;48.596;9.238;2023-02-22T01:25:21;5.80;99.90
21823;DHT22;11074;48.596;9.238;2023-02-22T01:27:48;5.80;99.90
21823;DHT22;11074;48.596;9.238;2023-02-22T01:30:20;5.80;99.90
21823;DHT22;11074;48.596;9.238;2023-02-22T01:32:48;5.70;99.90
21823;DHT22;11074;48.596;9.238;2023-02-22T01:35:18;5.60;99.90
21823;DHT22;11074;48.596;9.238;2023-02-22T01:37:45;5.60;99.90
21823;DHT22;11074;48.596;9.238;2023-02-22T01:40:18;5.60;99.90
21823;DHT22;11074;48.596;9.238;2023-02-22T01:42:51;5.50;99.90
21823;DHT22;11074;48.596;9.238;2023-02-22T01:48:17;5.60;99.90
21823;DHT22;11074;48.596;9.238;2023-02-22T01:51:01;5.50;99.90
21823;DHT22;11074;48.596;9.238;2023-02-22T01:53:56;5.50;99.90
21823;DHT22;11074;48.596;9.238;2023-02-22T01:56:27;5.60;99.90
21823;DHT22;11074;48.596;9.238;2023-02-22T01:59:02;5.60;99.90
21823;DHT22;11074;48.596;9.238;2023-02-22T02:01:35;5.50;99.90
21823;DHT22;11074;48.596;9.238;2023-02-22T02:04:07;5.50;99.90
21823;DHT22;11074;48.596;9.238;2023-02-22T02:06:36;5.50;99.90
21823;DHT22;11074;48.596;9.238;2023-02-22T02:09:26;5.50;99.90
21823;DHT22;11074;48.596;9.238;2023-02-22T02:12:13;5.40;99.90
21823;DHT22;11074;48.596;9.238;2023-02-22T02:14:42;5.30;99.90
21823;DHT22;11074;48.596;9.238;2023-02-22T02:17:10;5.30;99.90
21823;DHT22;11074;48.596;9.238;2023-02-22T02:31:20;5.40;99.90
21823;DHT22;11074;48.596;9.238;2023-02-22T02:37:11;5.40;99.90
21823;DHT22;11074;48.596;9.238;2023-02-22T02:43:00;5.20;99.90
21823;DHT22;11074;48.596;9.238;2023-02-22T02:45:48;5.30;99.90
21823;DHT22;11074;48.596;9.238;2023-02-22T02:48:22;5.20;99.90
21823;DHT22;11074;48.596;9.238;2023-02-22T02:50:52;5.20;99.90
21823;DHT22;11074;48.596;9.238;2023-02-22T02:53:26;5.20;99.90
21823;DHT22;11074;48.596;9.238;2023-02-22T02:56:03;5.20;99.90
21823;DHT22;11074;48.596;9.238;2023-02-22T02:58:29;5.20;99.90
21823;DHT22;11074;48.596;9.238;2023-02-22T03:00:58;5.10;99.90
21823;DHT22;11074;48.596;9.238;2023-02-22T03:03:56;5.00;99.90
21823;DHT22;11074;48.596;9.238;2023-02-22T03:06:49;5.00;99.90
21823;DHT22;11074;48.596;9.238;2023-02-22T03:09:39;5.00;99.90
21823;DHT22;11074;48.596;9.238;2023-02-22T03:15:05;5.00;99.90
21823;DHT22;11074;48.596;9.238;2023-02-22T03:23:31;4.80;99.90
21823;DHT22;11074;48.596;9.238;2023-02-22T03:26:10;4.90;99.90
21823;DHT22;11074;48.596;9.238;2023-02-22T03:28:40;4.80;99.90
21823;DHT22;11074;48.596;9.238;2023-02-22T03:31:27;4.90;99.90
21823;DHT22;11074;48.596;9.238;2023-02-22T03:34:18;4.90;99.90
21823;DHT22;11074;48.596;9.238;2023-02-22T03:36:53;4.80;99.90
21823;DHT22;11074;48.596;9.238;2023-02-22T03:39:35;4.80;99.90
21823;DHT22;11074;48.596;9.238;2023-02-22T03:42:09;4.80;99.90
21823;DHT22;11074;48.596;9.238;2023-02-22T03:44:40;4.90;99.90
21823;DHT22;11074;48.596;9.238;2023-02-22T03:47:14;4.80;99.90
21823;DHT22;11074;48.596;9.238;2023-02-22T03:49:56;4.70;99.90
21823;DHT22;11074;48.596;9.238;2023-02-22T03:52:26;4.70;99.90
21823;DHT22;11074;48.596;9.238;2023-02-22T03:54:52;4.80;99.90
21823;DHT22;11074;48.596;9.238;2023-02-22T03:57:39;4.70;99.90
21823;DHT22;11074;48.596;9.238;2023-02-22T04:00:10;4.70;99.90
21823;DHT22;11074;48.596;9.238;2023-02-22T04:02:43;4.70;99.90
21823;DHT22;11074;48.596;9.238;2023-02-22T04:05:09;4.70;99.90
21823;DHT22;11074;48.596;9.238;2023-02-22T04:07:35;4.70;99.90
21823;DHT22;11074;48.596;9.238;2023-02-22T04:10:01;4.70;99.90
21823;DHT22;11074;48.596;9.238;2023-02-22T04:12:27;4.60;99.90
21823;DHT22;11074;48.596;9.238;2023-02-22T04:14:53;4.60;99.90
21823;DHT22;11074;48.596;9.238;2023-02-22T04:17:19;4.60;99.90
21823;DHT22;11074;48.596;9.238;2023-02-22T04:19:44;4.40;99.90
21823;DHT22;11074;48.596;9.238;2023-02-22T04:22:10;4.40;99.90
21823;DHT22;11074;48.596;9.238;2023-02-22T04:24:36;4.40;99.90
21823;DHT22;11074;48.596;9.238;2023-02-22T04:27:02;4.40;99.90
21823;DHT22;11074;48.596;9.238;2023-02-22T04:29:28;4.40;99.90
21823;DHT22;11074;48.596;9.238;2023-02-22T04:31:54;4.40;99.90
21823;DHT22;11074;48.596;9.238;2023-02-22T04:34:20;4.50;99.90
21823;DHT22;11074;48.596;9.238;2023-02-22T04:36:46;4.50;99.90
21823;DHT22;11074;48.596;9.238;2023-02-22T04:39:12;4.50;99.90
21823;DHT22;11074;48.596;9.238;2023-02-22T04:41:37;4.50;99.90
21823;DHT22;11074;48.596;9.238;2023-02-22T04:44:03;4.40;99.90
21823;DHT22;11074;48.596;9.238;2023-02-22T04:46:29;4.30;99.90
21823;DHT22;11074;48.596;9.238;2023-02-22T04:48:56;4.20;99.90
21823;DHT22;11074;48.596;9.238;2023-02-22T04:51:22;4.20;99.90
21823;DHT22;11074;48.596;9.238;2023-02-22T04:53:48;4.20;99.90
21823;DHT22;11074;48.596;9.238;2023-02-22T04:56:16;4.30;99.90
21823;DHT22;11074;48.596;9.238;2023-02-22T04:58:43;4.30;99.90
21823;DHT22;11074;48.596;9.238;2023-02-22T05:01:08;4.30;99.90
21823;DHT22;11074;48.596;9.238;2023-02-22T05:03:36;4.20;99.90
21823;DHT22;11074;48.596;9.238;2023-02-22T05:06:02;4.20;99.90
21823;DHT22;11074;48.596;9.238;2023-02-22T05:08:28;4.10;99.90
21823;DHT22;11074;48.596;9.238;2023-02-22T05:10:54;4.10;99.90
21823;DHT22;11074;48.596;9.238;2023-02-22T05:13:20;3.90;99.90
21823;DHT22;11074;48.596;9.238;2023-02-22T05:15:46;4.00;99.90
21823;DHT22;11074;48.596;9.238;2023-02-22T05:18:13;4.00;99.90
21823;DHT22;11074;48.596;9.238;2023-02-22T05:20:39;4.00;99.90
21823;DHT22;11074;48.596;9.238;2023-02-22T05:23:05;4.10;99.90
21823;DHT22;11074;48.596;9.238;2023-02-22T05:25:31;4.10;99.90
21823;DHT22;11074;48.596;9.238;2023-02-22T05:28:02;4.10;99.90
21823;DHT22;11074;48.596;9.238;2023-02-22T05:30:32;4.20;99.90
21823;DHT22;11074;48.596;9.238;2023-02-22T05:33:00;4.10;99.90
21823;DHT22;11074;48.596;9.238;2023-02-22T05:35:27;4.10;99.90
21823;DHT22;11074;48.596;9.238;2023-02-22T05:37:54;4.10;99.90
21823;DHT22;11074;48.596;9.238;2023-02-22T05:40:24;4.10;99.90
21823;DHT22;11074;48.596;9.238;2023-02-22T05:42:51;4.10;99.90
21823;DHT22;11074;48.596;9.238;2023-02-22T05:45:19;4.10;99.90
21823;DHT22;11074;48.596;9.238;2023-02-22T05:47:47;4.10;99.90
21823;DHT22;11074;48.596;9.238;2023-02-22T05:50:13;4.10;99.90
21823;DHT22;11074;48.596;9.238;2023-02-22T05:52:39;4.10;99.90
21823;DHT22;11074;48.596;9.238;2023-02-22T05:55:07;4.10;99.90
21823;DHT22;11074;48.596;9.238;2023-02-22T05:57:34;4.00;99.90
21823;DHT22;11074;48.596;9.238;2023-02-22T06:00:00;3.90;99.90
21823;DHT22;11074;48.596;9.238;2023-02-22T06:02:26;3.90;99.90
21823;DHT22;11074;48.596;9.238;2023-02-22T06:04:52;3.90;99.90
21823;DHT22;11074;48.596;9.238;2023-02-22T06:07:17;3.70;99.90
21823;DHT22;11074;48.596;9.238;2023-02-22T06:09:43;3.80;99.90
21823;DHT22;11074;48.596;9.238;2023-02-22T06:12:09;3.80;99.90
21823;DHT22;11074;48.596;9.238;2023-02-22T06:14:35;3.90;99.90
21823;DHT22;11074;48.596;9.238;2023-02-22T06:17:01;3.80;99.90
21823;DHT22;11074;48.596;9.238;2023-02-22T06:19:27;3.80;99.90
21823;DHT22;11074;48.596;9.238;2023-02-22T06:21:55;3.80;99.90
21823;DHT22;11074;48.596;9.238;2023-02-22T06:24:24;3.90;99.90
21823;DHT22;11074;48.596;9.238;2023-02-22T06:26:55;3.90;99.90
21823;DHT22;11074;48.596;9.238;2023-02-22T06:29:23;4.00;99.90
21823;DHT22;11074;48.596;9.238;2023-02-22T06:31:50;4.00;99.90
21823;DHT22;11074;48.596;9.238;2023-02-22T06:34:16;3.90;99.90
21823;DHT22;11074;48.596;9.238;2023-02-22T06:36:42;3.90;99.90
21823;DHT22;11074;48.596;9.238;2023-02-22T06:39:08;3.90;99.90
21823;DHT22;11074;48.596;9.238;2023-02-22T06:41:39;3.90;99.90
21823;DHT22;11074;48.596;9.238;2023-02-22T06:44:05;4.00;99.90
21823;DHT22;11074;48.596;9.238;2023-02-22T06:46:31;3.90;99.90
21823;DHT22;11074;48.596;9.238;2023-02-22T06:48:57;4.00;99.90
21823;DHT22;11074;48.596;9.238;2023-02-22T06:51:25;4.00;99.90
21823;DHT22;11074;48.596;9.238;2023-02-22T06:53:52;4.00;99.90
21823;DHT22;11074;48.596;9.238;2023-02-22T06:56:18;4.00;99.90
21823;DHT22;11074;48.596;9.238;2023-02-22T06:58:44;4.00;99.90
21823;DHT22;11074;48.596;9.238;2023-02-22T07:01:10;4.00;99.90
21823;DHT22;11074;48.596;9.238;2023-02-22T07:03:36;4.10;99.90
21823;DHT22;11074;48.596;9.238;2023-02-22T07:06:03;4.10;99.90
21823;DHT22;11074;48.596;9.238;2023-02-22T07:08:30;4.10;99.90
21823;DHT22;11074;48.596;9.238;2023-02-22T07:10:56;4.20;99.90
21823;DHT22;11074;48.596;9.238;2023-02-22T07:13:22;4.20;99.90
21823;DHT22;11074;48.596;9.238;2023-02-22T07:15:47;4.20;99.90
21823;DHT22;11074;48.596;9.238;2023-02-22T07:18:13;4.30;99.90
21823;DHT22;11074;48.596;9.238;2023-02-22T07:20:40;4.40;99.90
21823;DHT22;11074;48.596;9.238;2023-02-22T07:23:07;4.50;99.90
21823;DHT22;11074;48.596;9.238;2023-02-22T07:25:33;4.50;99.90
21823;DHT22;11074;48.596;9.238;2023-02-22T07:27:59;4.50;99.90
21823;DHT22;11074;48.596;9.238;2023-02-22T07:30:30;4.50;99.90
21823;DHT22;11074;48.596;9.238;2023-02-22T07:32:58;4.60;99.90
21823;DHT22;11074;48.596;9.238;2023-02-22T07:35:36;4.60;99.90
21823;DHT22;11074;48.596;9.238;2023-02-22T07:38:08;4.60;99.90
21823;DHT22;11074;48.596;9.238;2023-02-22T07:40:35;4.60;99.90
21823;DHT22;11074;48.596;9.238;2023-02-22T07:43:16;4.70;99.90
21823;DHT22;11074;48.596;9.238;2023-02-22T07:45:42;4.80;99.90
21823;DHT22;11074;48.596;9.238;2023-02-22T07:48:09;4.90;99.90
21823;DHT22;11074;48.596;9.238;2023-02-22T07:50:37;5.00;99.90
21823;DHT22;11074;48.596;9.238;2023-02-22T07:53:05;5.00;99.90
21823;DHT22;11074;48.596;9.238;2023-02-22T07:55:35;5.00;99.90
21823;DHT22;11074;48.596;9.238;2023-02-22T07:58:03;5.10;99.90
21823;DHT22;11074;48.596;9.238;2023-02-22T08:00:34;5.20;99.90
21823;DHT22;11074;48.596;9.238;2023-02-22T08:03:05;5.30;99.90
21823;DHT22;11074;48.596;9.238;2023-02-22T08:05:35;5.30;99.90
21823;DHT22;11074;48.596;9.238;2023-02-22T08:08:02;5.30;99.90
21823;DHT22;11074;48.596;9.238;2023-02-22T08:10:28;5.40;99.90
21823;DHT22;11074;48.596;9.238;2023-02-22T08:12:55;5.50;99.90
21823;DHT22;11074;48.596;9.238;2023-02-22T08:17:53;5.60;99.90
21823;DHT22;11074;48.596;9.238;2023-02-22T08:20:19;5.60;99.90
21823;DHT22;11074;48.596;9.238;2023-02-22T08:22:47;5.60;99.90
21823;DHT22;11074;48.596;9.238;2023-02-22T08:25:16;5.70;99.90
21823;DHT22;11074;48.596;9.238;2023-02-22T08:27:43;5.80;99.90
21823;DHT22;11074;48.596;9.238;2023-02-22T08:30:18;5.90;99.90
21823;DHT22;11074;48.596;9.238;2023-02-22T08:32:47;5.90;99.90
21823;DHT22;11074;48.596;9.238;2023-02-22T08:35:15;5.90;99.90
21823;DHT22;11074;48.596;9.238;2023-02-22T08:37:43;6.00;99.90
21823;DHT22;11074;48.596;9.238;2023-02-22T08:40:11;6.10;99.90
21823;DHT22;11074;48.596;9.238;2023-02-22T08:42:37;6.20;99.90
21823;DHT22;11074;48.596;9.238;2023-02-22T08:45:03;6.30;99.90
21823;DHT22;11074;48.596;9.238;2023-02-22T08:47:29;6.40;99.90
21823;DHT22;11074;48.596;9.238;2023-02-22T08:49:55;6.50;99.90
21823;DHT22;11074;48.596;9.238;2023-02-22T08:52:21;6.50;99.90
21823;DHT22;11074;48.596;9.238;2023-02-22T08:54:47;6.60;99.90
21823;DHT22;11074;48.596;9.238;2023-02-22T08:57:13;6.80;99.90
21823;DHT22;11074;48.596;9.238;2023-02-22T08:59:39;6.90;99.90
21823;DHT22;11074;48.596;9.238;2023-02-22T09:02:09;7.00;99.90
21823;DHT22;11074;48.596;9.238;2023-02-22T09:04:39;7.00;99.90
21823;DHT22;11074;48.596;9.238;2023-02-22T09:07:05;7.10;99.90
21823;DHT22;11074;48.596;9.238;2023-02-22T09:09:31;7.20;99.90
21823;DHT22;11074;48.596;9.238;2023-02-22T09:11:56;7.30;99.90
21823;DHT22;11074;48.596;9.238;2023-02-22T09:14:22;7.40;99.90
21823;DHT22;11074;48.596;9.238;2023-02-22T09:16:48;7.50;99.90
21823;DHT22;11074;48.596;9.238;2023-02-22T09:19:13;7.60;99.90
21823;DHT22;11074;48.596;9.238;2023-02-22T09:21:39;7.70;99.90
21823;DHT22;11074;48.596;9.238;2023-02-22T09:24:05;7.80;99.90
21823;DHT22;11074;48.596;9.238;2023-02-22T09:26:35;7.90;99.90
21823;DHT22;11074;48.596;9.238;2023-02-22T09:29:05;7.90;99.90
21823;DHT22;11074;48.596;9.238;2023-02-22T09:31:38;8.00;99.90
21823;DHT22;11074;48.596;9.238;2023-02-22T09:34:06;8.00;99.90
21823;DHT22;11074;48.596;9.238;2023-02-22T09:36:42;8.10;99.90
21823;DHT22;11074;48.596;9.238;2023-02-22T09:39:09;8.10;99.90
21823;DHT22;11074;48.596;9.238;2023-02-22T09:42:42;8.10;99.90
21823;DHT22;11074;48.596;9.238;2023-02-22T09:45:07;8.10;99.90
21823;DHT22;11074;48.596;9.238;2023-02-22T09:47:56;8.10;99.90
21823;DHT22;11074;48.596;9.238;2023-02-22T09:50:34;8.10;99.90
21823;DHT22;11074;48.596;9.238;2023-02-22T09:53:25;8.20;99.90
21823;DHT22;11074;48.596;9.238;2023-02-22T09:56:04;8.20;99.90
21823;DHT22;11074;48.596;9.238;2023-02-22T09:58:38;8.30;99.90
21823;DHT22;11074;48.596;9.238;2023-02-22T10:01:27;8.40;99.90
21823;DHT22;11074;48.596;9.238;2023-02-22T10:04:18;8.50;99.90
21823;DHT22;11074;48.596;9.238;2023-02-22T10:07:29;8.60;99.90
21823;DHT22;11074;48.596;9.238;2023-02-22T10:10:01;8.60;99.90
21823;DHT22;11074;48.596;9.238;2023-02-22T10:13:02;8.70;99.90
21823;DHT22;11074;48.596;9.238;2023-02-22T10:19:45;9.00;99.90
21823;DHT22;11074;48.596;9.238;2023-02-22T10:24:53;9.00;99.90
21823;DHT22;11074;48.596;9.238;2023-02-22T10:30:30;9.00;99.90
21823;DHT22;11074;48.596;9.238;2023-02-22T10:33:19;9.10;99.90
21823;DHT22;11074;48.596;9.238;2023-02-22T10:35:46;9.20;99.90
21823;DHT22;11074;48.596;9.238;2023-02-22T10:38:25;9.20;99.90
21823;DHT22;11074;48.596;9.238;2023-02-22T10:41:21;9.30;99.90
21823;DHT22;11074;48.596;9.238;2023-02-22T10:43:58;9.40;99.90
21823;DHT22;11074;48.596;9.238;2023-02-22T10:46:27;9.60;99.90
21823;DHT22;11074;48.596;9.238;2023-02-22T10:48:56;9.70;99.90
21823;DHT22;11074;48.596;9.238;2023-02-22T10:51:27;9.80;99.90
21823;DHT22;11074;48.596;9.238;2023-02-22T10:56:45;10.10;99.90
21823;DHT22;11074;48.596;9.238;2023-02-22T10:59:26;10.20;99.90
21823;DHT22;11074;48.596;9.238;2023-02-22T11:02:30;10.40;99.90
21823;DHT22;11074;48.596;9.238;2023-02-22T11:04:59;10.60;99.90
21823;DHT22;11074;48.596;9.238;2023-02-22T11:07:31;10.70;99.90
21823;DHT22;11074;48.596;9.238;2023-02-22T11:10:04;10.70;99.90
21823;DHT22;11074;48.596;9.238;2023-02-22T11:12:40;10.80;99.90
21823;DHT22;11074;48.596;9.238;2023-02-22T11:17:41;10.90;99.90
21823;DHT22;11074;48.596;9.238;2023-02-22T11:22:51;11.10;99.90
21823;DHT22;11074;48.596;9.238;2023-02-22T11:25:21;11.20;99.90
21823;DHT22;11074;48.596;9.238;2023-02-22T11:27:51;11.40;99.90
21823;DHT22;11074;48.596;9.238;2023-02-22T11:30:26;11.60;99.90
21823;DHT22;11074;48.596;9.238;2023-02-22T11:32:58;11.70;99.90
21823;DHT22;11074;48.596;9.238;2023-02-22T11:35:56;11.90;99.90
21823;DHT22;11074;48.596;9.238;2023-02-22T11:38:28;12.00;99.90
21823;DHT22;11074;48.596;9.238;2023-02-22T11:44:28;12.20;99.90
21823;DHT22;11074;48.596;9.238;2023-02-22T11:46:57;12.30;99.90
21823;DHT22;11074;48.596;9.238;2023-02-22T11:49:34;12.30;99.90
21823;DHT22;11074;48.596;9.238;2023-02-22T11:55:32;12.50;99.90
21823;DHT22;11074;48.596;9.238;2023-02-22T12:01:04;12.80;99.90
21823;DHT22;11074;48.596;9.238;2023-02-22T12:04:20;12.90;99.90
21823;DHT22;11074;48.596;9.238;2023-02-22T12:07:07;13.10;99.90
21823;DHT22;11074;48.596;9.238;2023-02-22T12:13:36;13.20;99.90
21823;DHT22;11074;48.596;9.238;2023-02-22T12:16:20;13.20;99.90
21823;DHT22;11074;48.596;9.238;2023-02-22T12:21:52;13.40;99.90
21823;DHT22;11074;48.596;9.238;2023-02-22T12:24:26;13.40;99.90
21823;DHT22;11074;48.596;9.238;2023-02-22T12:27:23;13.40;99.90
21823;DHT22;11074;48.596;9.238;2023-02-22T12:30:00;13.50;99.90
21823;DHT22;11074;48.596;9.238;2023-02-22T12:32:43;13.50;99.90
21823;DHT22;11074;48.596;9.238;2023-02-22T12:35:21;13.50;99.90
21823;DHT22;11074;48.596;9.238;2023-02-22T12:44:42;13.90;99.90
21823;DHT22;11074;48.596;9.238;2023-02-22T12:47:05;14.10;99.90
21823;DHT22;11074;48.596;9.238;2023-02-22T12:49:50;14.20;99.90
21823;DHT22;11074;48.596;9.238;2023-02-22T12:52:48;14.40;99.90
21823;DHT22;11074;48.596;9.238;2023-02-22T12:55:23;14.60;99.90
21823;DHT22;11074;48.596;9.238;2023-02-22T12:58:29;14.80;99.90
21823;DHT22;11074;48.596;9.238;2023-02-22T13:01:40;15.10;99.90
21823;DHT22;11074;48.596;9.238;2023-02-22T13:04:10;15.40;99.90
21823;DHT22;11074;48.596;9.238;2023-02-22T13:06:52;15.40;99.90
21823;DHT22;11074;48.596;9.238;2023-02-22T13:13:03;15.60;99.90
21823;DHT22;11074;48.596;9.238;2023-02-22T13:15:50;15.80;99.90
21823;DHT22;11074;48.596;9.238;2023-02-22T13:18:39;16.10;99.90
21823;DHT22;11074;48.596;9.238;2023-02-22T13:21:44;16.20;99.90
21823;DHT22;11074;48.596;9.238;2023-02-22T13:24:27;16.30;99.90
21823;DHT22;11074;48.596;9.238;2023-02-22T13:27:12;16.40;99.90
21823;DHT22;11074;48.596;9.238;2023-02-22T13:29:48;16.40;99.90
21823;DHT22;11074;48.596;9.238;2023-02-22T13:41:54;16.00;99.90
21823;DHT22;11074;48.596;9.238;2023-02-22T13:48:15;15.80;99.90
21823;DHT22;11074;48.596;9.238;2023-02-22T13:51:17;15.30;99.90
21823;DHT22;11074;48.596;9.238;2023-02-22T13:56:44;14.70;99.90
21823;DHT22;11074;48.596;9.238;2023-02-22T13:59:40;14.60;99.90
21823;DHT22;11074;48.596;9.238;2023-02-22T14:02:15;14.70;99.90
21823;DHT22;11074;48.596;9.238;2023-02-22T14:08:51;14.70;99.90
21823;DHT22;11074;48.596;9.238;2023-02-22T14:11:04;14.70;99.90
21823;DHT22;11074;48.596;9.238;2023-02-22T14:16:22;14.60;99.90
21823;DHT22;11074;48.596;9.238;2023-02-22T14:19:12;14.60;99.90
21823;DHT22;11074;48.596;9.238;2023-02-22T14:21:59;14.70;99.90
21823;DHT22;11074;48.596;9.238;2023-02-22T14:24:42;14.80;99.90
21823;DHT22;11074;48.596;9.238;2023-02-22T14:27:10;15.00;99.90
21823;DHT22;11074;48.596;9.238;2023-02-22T14:29:51;15.10;99.90
21823;DHT22;11074;48.596;9.238;2023-02-22T14:32:20;15.30;99.90
21823;DHT22;11074;48.596;9.238;2023-02-22T14:34:57;15.70;99.90
21823;DHT22;11074;48.596;9.238;2023-02-22T14:37:29;15.90;99.90
21823;DHT22;11074;48.596;9.238;2023-02-22T14:40:26;15.80;99.90
21823;DHT22;11074;48.596;9.238;2023-02-22T14:43:09;15.60;99.90
21823;DHT22;11074;48.596;9.238;2023-02-22T14:45:50;15.40;99.90
21823;DHT22;11074;48.596;9.238;2023-02-22T14:48:36;15.30;99.90
21823;DHT22;11074;48.596;9.238;2023-02-22T14:51:25;15.10;99.90
21823;DHT22;11074;48.596;9.238;2023-02-22T14:54:08;15.10;99.90
21823;DHT22;11074;48.596;9.238;2023-02-22T15:00:00;15.20;99.90
21823;DHT22;11074;48.596;9.238;2023-02-22T15:02:45;15.10;99.90
21823;DHT22;11074;48.596;9.238;2023-02-22T15:05:14;14.90;99.90
21823;DHT22;11074;48.596;9.238;2023-02-22T15:07:56;14.80;99.90
21823;DHT22;11074;48.596;9.238;2023-02-22T15:10:28;14.60;99.90
21823;DHT22;11074;48.596;9.238;2023-02-22T15:13:02;14.50;99.90
21823;DHT22;11074;48.596;9.238;2023-02-22T15:15:35;14.30;99.90
21823;DHT22;11074;48.596;9.238;2023-02-22T15:18:03;14.20;99.90
21823;DHT22;11074;48.596;9.238;2023-02-22T15:20:40;14.10;99.90
21823;DHT22;11074;48.596;9.238;2023-02-22T15:23:06;13.90;99.90
21823;DHT22;11074;48.596;9.238;2023-02-22T15:25:33;13.80;99.90
21823;DHT22;11074;48.596;9.238;2023-02-22T15:28:03;13.70;99.90
21823;DHT22;11074;48.596;9.238;2023-02-22T15:30:32;13.70;99.90
21823;DHT22;11074;48.596;9.238;2023-02-22T15:33:10;13.60;99.90
21823;DHT22;11074;48.596;9.238;2023-02-22T15:35:39;13.60;99.90
21823;DHT22;11074;48.596;9.238;2023-02-22T15:38:14;13.50;99.90
21823;DHT22;11074;48.596;9.238;2023-02-22T15:40:44;13.40;99.90
21823;DHT22;11074;48.596;9.238;2023-02-22T15:43:18;13.30;99.90
21823;DHT22;11074;48.596;9.238;2023-02-22T15:45:53;13.20;99.90
21823;DHT22;11074;48.596;9.238;2023-02-22T15:48:19;13.10;99.90
21823;DHT22;11074;48.596;9.238;2023-02-22T15:51:08;13.10;99.90
21823;DHT22;11074;48.596;9.238;2023-02-22T15:53:46;13.10;99.90
21823;DHT22;11074;48.596;9.238;2023-02-22T15:56:22;13.10;99.90
21823;DHT22;11074;48.596;9.238;2023-02-22T15:58:59;13.00;99.90
21823;DHT22;11074;48.596;9.238;2023-02-22T16:01:37;13.00;99.90
21823;DHT22;11074;48.596;9.238;2023-02-22T16:04:06;12.90;99.90
21823;DHT22;11074;48.596;9.238;2023-02-22T16:06:41;12.90;99.90
21823;DHT22;11074;48.596;9.238;2023-02-22T16:09:10;12.90;99.90
21823;DHT22;11074;48.596;9.238;2023-02-22T16:12:05;12.80;99.90
21823;DHT22;11074;48.596;9.238;2023-02-22T16:17:11;12.70;99.90
21823;DHT22;11074;48.596;9.238;2023-02-22T16:19:51;12.60;99.90
21823;DHT22;11074;48.596;9.238;2023-02-22T16:27:54;12.40;99.90
21823;DHT22;11074;48.596;9.238;2023-02-22T16:30:38;12.40;99.90
21823;DHT22;11074;48.596;9.238;2023-02-22T16:33:06;12.30;99.90
21823;DHT22;11074;48.596;9.238;2023-02-22T16:35:40;12.20;99.90
21823;DHT22;11074;48.596;9.238;2023-02-22T16:38:16;12.20;99.90
21823;DHT22;11074;48.596;9.238;2023-02-22T16:40:51;12.10;99.90
21823;DHT22;11074;48.596;9.238;2023-02-22T16:43:25;12.10;99.90
21823;DHT22;11074;48.596;9.238;2023-02-22T16:45:55;12.00;99.90
21823;DHT22;11074;48.596;9.238;2023-02-22T16:50:51;11.90;99.90
21823;DHT22;11074;48.596;9.238;2023-02-22T16:53:21;11.90;99.90
21823;DHT22;11074;48.596;9.238;2023-02-22T16:55:49;11.80;99.90
21823;DHT22;11074;48.596;9.238;2023-02-22T16:58:22;11.80;99.90
21823;DHT22;11074;48.596;9.238;2023-02-22T17:00:52;11.70;99.90
21823;DHT22;11074;48.596;9.238;2023-02-22T17:03:22;11.70;99.90
21823;DHT22;11074;48.596;9.238;2023-02-22T17:05:49;11.60;99.90
21823;DHT22;11074;48.596;9.238;2023-02-22T17:08:15;11.60;99.90
21823;DHT22;11074;48.596;9.238;2023-02-22T17:10:41;11.50;99.90
21823;DHT22;11074;48.596;9.238;2023-02-22T17:13:07;11.40;99.90
21823;DHT22;11074;48.596;9.238;2023-02-22T17:15:34;11.40;99.90
21823;DHT22;11074;48.596;9.238;2023-02-22T17:18:05;11.40;99.90
21823;DHT22;11074;48.596;9.238;2023-02-22T17:20:38;11.30;99.90
21823;DHT22;11074;48.596;9.238;2023-02-22T17:23:05;11.30;99.90
21823;DHT22;11074;48.596;9.238;2023-02-22T17:25:41;11.20;99.90
21823;DHT22;11074;48.596;9.238;2023-02-22T17:28:15;11.20;99.90
21823;DHT22;11074;48.596;9.238;2023-02-22T17:30:41;11.10;99.90
21823;DHT22;11074;48.596;9.238;2023-02-22T17:33:15;11.00;99.90
21823;DHT22;11074;48.596;9.238;2023-02-22T17:35:42;11.00;99.90
21823;DHT22;11074;48.596;9.238;2023-02-22T17:38:09;10.90;99.90
21823;DHT22;11074;48.596;9.238;2023-02-22T17:40:37;10.90;99.90
21823;DHT22;11074;48.596;9.238;2023-02-22T17:43:05;10.80;99.90
21823;DHT22;11074;48.596;9.238;2023-02-22T17:45:36;10.80;99.90
21823;DHT22;11074;48.596;9.238;2023-02-22T17:48:03;10.70;99.90
21823;DHT22;11074;48.596;9.238;2023-02-22T17:50:29;10.70;99.90
21823;DHT22;11074;48.596;9.238;2023-02-22T17:52:56;10.70;99.90
21823;DHT22;11074;48.596;9.238;2023-02-22T17:55:25;10.60;99.90
21823;DHT22;11074;48.596;9.238;2023-02-22T17:57:53;10.50;99.90
21823;DHT22;11074;48.596;9.238;2023-02-22T18:00:29;10.50;99.90
21823;DHT22;11074;48.596;9.238;2023-02-22T18:03:06;10.40;99.90
21823;DHT22;11074;48.596;9.238;2023-02-22T18:05:46;10.40;99.90
21823;DHT22;11074;48.596;9.238;2023-02-22T18:08:14;10.40;99.90